createdAt,value
2022-09-20T00:02:23.745Z,9.10
2022-09-20T00:07:26.448Z,5.20
2022-09-20T00:12:29.243Z,6.40
2022-09-20T00:17:32.251Z,6.60
2022-09-20T00:22:34.947Z,7.70
2022-09-20T00:27:37.657Z,6.50
2022-09-20T00:32:41.297Z,9.10
2022-09-20T00:37:44.073Z,9.50
2022-09-20T00:42:48.299Z,13.90
2022-09-20T00:48:07.932Z,8.40
2022-09-20T00:53:31.680Z,8.10
2022-09-20T00:58:40.234Z,6.90
2022-09-20T01:03:43.555Z,6.00
2022-09-20T01:08:50.855Z,6.80
2022-09-20T01:13:53.534Z,7.60
2022-09-20T01:18:59.031Z,5.30
2022-09-20T01:24:07.503Z,6.50
2022-09-20T01:29:28.884Z,7.30
2022-09-20T01:34:36.440Z,6.00
2022-09-20T01:39:54.351Z,5.00
2022-09-20T01:45:09.963Z,6.80
2022-09-20T01:50:30.363Z,6.10
2022-09-20T01:56:06.850Z,7.00
2022-09-20T02:01:50.924Z,7.00
2022-09-20T02:07:25.588Z,4.30
2022-09-20T02:12:49.980Z,7.50
2022-09-20T02:18:14.183Z,7.70
2022-09-20T02:23:32.140Z,10.70
2022-09-20T02:28:49.469Z,7.70
2022-09-20T02:34:01.191Z,8.80
2022-09-20T02:39:21.501Z,6.40
2022-09-20T02:44:46.011Z,8.00
2022-09-20T02:50:00.200Z,8.90
2022-09-20T02:55:13.955Z,8.30
2022-09-20T03:00:27.198Z,5.90
2022-09-20T03:11:03.305Z,8.30
2022-09-20T03:16:22.950Z,7.10
2022-09-20T03:21:37.829Z,8.50
2022-09-20T03:27:05.373Z,8.10
2022-09-20T03:32:50.883Z,9.10
2022-09-20T03:37:53.447Z,7.70
2022-09-20T03:43:18.184Z,7.30
2022-09-20T03:48:43.445Z,7.60
2022-09-20T03:54:01.418Z,12.60
2022-09-20T03:59:41.669Z,11.20
2022-09-20T04:04:55.922Z,9.50
2022-09-20T04:10:14.074Z,11.30
2022-09-20T04:15:26.070Z,6.40
2022-09-20T04:20:36.367Z,9.00
2022-09-20T04:25:44.609Z,8.40
2022-09-20T04:30:51.792Z,11.00
2022-09-20T04:36:31.581Z,9.50
2022-09-20T04:41:59.764Z,7.10
2022-09-20T04:47:15.468Z,8.00
2022-09-20T04:52:52.059Z,5.90
2022-09-20T04:58:25.993Z,7.70
2022-09-20T05:03:49.899Z,6.30
2022-09-20T05:09:30.476Z,10.20
2022-09-20T05:14:45.362Z,7.10
2022-09-20T05:19:58.713Z,8.90
2022-09-20T05:25:19.329Z,11.10
2022-09-20T05:30:28.460Z,8.20
2022-09-20T05:35:49.184Z,10.20
2022-09-20T05:41:07.845Z,10.10
2022-09-20T05:46:22.553Z,8.40
2022-09-20T05:52:02.337Z,9.90
2022-09-20T05:57:10.677Z,10.20
2022-09-20T06:02:22.663Z,7.80
2022-09-20T06:07:52.602Z,8.60
2022-09-20T06:13:20.730Z,13.60
2022-09-20T06:18:58.871Z,10.70
2022-09-20T06:24:03.332Z,9.20
2022-09-20T06:29:14.364Z,7.30
2022-09-20T06:34:19.662Z,10.60
2022-09-20T06:44:50.111Z,11.70
2022-09-20T06:49:53.361Z,8.90
2022-09-20T06:54:56.972Z,8.80
2022-09-20T06:59:59.731Z,9.50
2022-09-20T07:05:04.816Z,9.60
2022-09-20T07:10:08.045Z,8.80
2022-09-20T07:15:10.921Z,7.30
2022-09-20T07:20:14.542Z,7.30
2022-09-20T07:25:20.867Z,6.70
2022-09-20T07:30:24.214Z,6.30
2022-09-20T07:35:26.933Z,8.30
2022-09-20T07:45:35.207Z,4.20
2022-09-20T07:50:37.928Z,6.00
2022-09-20T07:55:40.557Z,4.70
2022-09-20T08:00:43.194Z,4.90
2022-09-20T08:05:45.850Z,4.10
2022-09-20T08:10:48.569Z,3.80
2022-09-20T08:15:51.337Z,3.40
2022-09-20T08:20:55.535Z,8.10
2022-09-20T08:25:58.298Z,4.10
2022-09-20T08:31:11.212Z,3.00
2022-09-20T08:36:22.971Z,4.20
2022-09-20T08:41:43.885Z,3.90
2022-09-20T08:46:50.861Z,5.60
2022-09-20T08:51:54.828Z,2.90
2022-09-20T08:56:58.747Z,2.60
2022-09-20T09:02:01.558Z,3.20
2022-09-20T09:12:18.202Z,2.10
2022-09-20T09:17:29.203Z,3.90
2022-09-20T09:22:41.398Z,2.00
2022-09-20T09:27:53.434Z,4.40
2022-09-20T09:33:15.549Z,3.60
2022-09-20T09:38:24.187Z,2.20
2022-09-20T09:43:32.464Z,2.60
2022-09-20T09:48:38.506Z,5.10
2022-09-20T09:53:44.442Z,1.60
2022-09-20T09:59:12.619Z,2.10
2022-09-20T10:04:33.221Z,3.30
2022-09-20T10:10:12.503Z,1.90
2022-09-20T10:15:39.933Z,3.00
2022-09-20T10:21:19.817Z,1.60
2022-09-20T10:26:36.934Z,2.10
2022-09-20T10:31:57.894Z,4.30
2022-09-20T10:37:02.133Z,2.60
2022-09-20T10:42:27.625Z,5.60
2022-09-20T10:48:12.436Z,3.20
2022-09-20T10:53:21.205Z,2.00
2022-09-20T10:58:46.026Z,7.60
2022-09-20T11:03:51.656Z,1.60
2022-09-20T11:09:04.579Z,1.00
2022-09-20T11:14:37.998Z,1.20
2022-09-20T11:19:47.727Z,2.50
2022-09-20T11:25:10.761Z,1.20
2022-09-20T11:30:21.988Z,2.00
2022-09-20T11:35:35.614Z,4.50
2022-09-20T11:40:49.496Z,4.40
2022-09-20T11:45:57.435Z,7.20
2022-09-20T11:51:33.070Z,2.80
2022-09-20T11:56:35.824Z,2.80
2022-09-20T12:06:48.019Z,1.20
2022-09-20T12:11:52.582Z,2.40
2022-09-20T12:16:56.518Z,3.40
2022-09-20T12:21:59.580Z,3.50
2022-09-20T12:27:44.103Z,1.80
2022-09-20T12:32:58.314Z,1.40
2022-09-20T12:38:40.321Z,1.60
2022-09-20T12:43:55.236Z,6.70
2022-09-20T12:49:46.432Z,2.80
2022-09-20T12:54:56.315Z,1.50
2022-09-20T13:00:15.486Z,2.60
2022-09-20T13:05:38.589Z,1.80
2022-09-20T13:11:05.211Z,2.60
2022-09-20T13:16:23.757Z,4.00
2022-09-20T13:21:28.789Z,3.30
2022-09-20T13:26:40.758Z,4.30
2022-09-20T13:31:44.160Z,2.80
2022-09-20T13:36:56.207Z,2.40
2022-09-20T13:42:02.590Z,1.70
2022-09-20T13:47:43.154Z,4.50
2022-09-20T13:53:39.399Z,3.50
2022-09-20T13:58:39.775Z,5.30
2022-09-20T14:08:51.624Z,6.30
2022-09-20T14:13:58.350Z,15.00
2022-09-20T14:19:03.383Z,5.10
2022-09-20T14:24:37.245Z,8.70
2022-09-20T14:29:43.412Z,5.30
2022-09-20T14:35:00.964Z,5.40
2022-09-20T14:40:16.643Z,5.50
2022-09-20T14:45:24.624Z,4.60
2022-09-20T14:50:31.870Z,4.90
2022-09-20T14:55:37.586Z,4.60
2022-09-20T15:01:03.257Z,5.50
2022-09-20T15:06:10.406Z,4.40
2022-09-20T15:11:17.756Z,8.60
2022-09-20T15:16:20.542Z,4.50
2022-09-20T15:21:24.302Z,9.50
2022-09-20T15:26:27.424Z,7.40
2022-09-20T15:36:32.720Z,8.10
2022-09-20T15:41:36.039Z,7.50
2022-09-20T15:46:38.919Z,7.30
2022-09-20T15:56:44.169Z,7.20
2022-09-20T16:01:48.286Z,5.80
2022-09-20T16:06:51.450Z,6.40
2022-09-20T16:11:58.855Z,11.60
2022-09-20T16:17:01.608Z,8.20
2022-09-20T16:22:04.955Z,8.60
2022-09-20T16:27:14.710Z,11.60
2022-09-20T16:32:17.978Z,18.50
2022-09-20T16:37:22.606Z,35.60
2022-09-20T16:42:25.326Z,16.60
2022-09-20T16:47:27.975Z,17.10
2022-09-20T16:52:30.670Z,13.40
2022-09-20T16:57:33.375Z,15.00
2022-09-20T17:02:36.373Z,20.70
2022-09-20T17:07:39.075Z,17.30
2022-09-20T17:12:42.515Z,24.30
2022-09-20T17:17:45.805Z,90.20
2022-09-20T17:22:49.130Z,83.90
2022-09-20T17:27:51.813Z,25.00
2022-09-20T17:32:55.126Z,14.10
2022-09-20T17:37:57.800Z,37.40
2022-09-20T17:43:00.468Z,25.00
2022-09-20T17:48:04.142Z,21.00
2022-09-20T17:53:07.244Z,46.60
2022-09-20T18:03:12.445Z,48.40
2022-09-20T18:08:16.015Z,37.40
2022-09-20T18:13:18.763Z,44.90
2022-09-20T18:18:21.996Z,20.40
2022-09-20T18:28:27.476Z,25.20
2022-09-20T18:33:31.551Z,14.10
2022-09-20T18:38:34.242Z,25.60
2022-09-20T18:43:37.024Z,22.80
2022-09-20T18:48:40.317Z,20.40
2022-09-20T18:53:42.986Z,19.90
2022-09-20T18:58:46.026Z,37.00
2022-09-20T19:04:07.463Z,28.80
2022-09-20T19:09:43.470Z,41.80
2022-09-20T19:15:10.924Z,28.90
2022-09-20T19:20:25.561Z,25.50
2022-09-20T19:25:40.826Z,31.80
2022-09-20T19:30:45.641Z,20.40
2022-09-20T19:35:50.390Z,14.30
2022-09-20T19:41:05.170Z,14.20
2022-09-20T19:46:31.624Z,21.40
2022-09-20T19:51:37.800Z,23.10
2022-09-20T19:56:53.154Z,20.80
2022-09-20T20:01:56.597Z,12.70
2022-09-20T20:07:06.177Z,10.10
2022-09-20T20:12:20.577Z,18.60
2022-09-20T20:17:32.573Z,12.70
2022-09-20T20:22:47.141Z,8.20
2022-09-20T20:27:49.782Z,9.30
2022-09-20T20:32:58.195Z,9.10
2022-09-20T20:38:00.857Z,10.20
2022-09-20T20:43:06.192Z,9.70
2022-09-20T20:48:08.828Z,9.40
2022-09-20T20:53:11.473Z,12.90
2022-09-20T20:58:14.090Z,11.30
2022-09-20T21:03:16.720Z,13.80
2022-09-20T21:08:19.423Z,11.90
2022-09-20T21:13:22.426Z,13.50
2022-09-20T21:18:25.111Z,12.60
2022-09-20T21:23:27.868Z,10.70
2022-09-20T21:28:30.931Z,11.50
2022-09-20T21:33:35.571Z,13.60
2022-09-20T21:38:39.766Z,8.50
2022-09-20T21:43:44.878Z,11.60
2022-09-20T21:48:49.097Z,8.60
2022-09-20T21:53:54.317Z,6.90
2022-09-20T21:58:58.198Z,8.00
2022-09-20T22:04:05.132Z,6.00
2022-09-20T22:09:13.881Z,6.40
2022-09-20T22:14:19.498Z,8.70
2022-09-20T22:19:22.386Z,5.70
2022-09-20T22:24:25.202Z,8.30
2022-09-20T22:29:27.888Z,8.50
2022-09-20T22:34:30.540Z,8.70
2022-09-20T22:39:33.287Z,7.80
2022-09-20T22:44:36.089Z,7.10
2022-09-20T22:49:38.804Z,8.00
2022-09-20T22:54:46.617Z,8.20
2022-09-20T22:59:49.253Z,5.10
2022-09-20T23:04:51.923Z,9.90
2022-09-20T23:09:54.554Z,8.80
2022-09-20T23:14:57.197Z,8.50
2022-09-20T23:19:59.845Z,6.00
2022-09-20T23:25:02.599Z,7.20
2022-09-20T23:30:06.215Z,7.10
2022-09-20T23:35:09.118Z,8.60
2022-09-20T23:40:11.847Z,4.70
2022-09-20T23:45:15.026Z,3.40
2022-09-20T23:50:17.673Z,4.30
2022-09-20T23:55:20.426Z,8.40
